Startpagina
METAR-TAF:

METAR-TAF

Vliegvelden :

Riga, Letland

Luchthaven Riga

breedte: 56-55N, lengte: 023-58E, hoogte: 10 m

Actueel weer

Dit bericht is 11 minuten geleden gemaakt, om 08:50 UTC
Wind 8 kt uit het oosten
Temperatuur 15°C
Vochtigheid 77%
Druk 1024 hPa
Zicht 10 km of meer
geen wolken onder 1500 m en geen cumulonimbus

METAR: EVRA 230850Z 08008KT CAVOK 15/11 Q1024 NOSIG

Tijdstip: 12:01 (09:01 UTC)

Verwachting

Dit bericht is 1 uur en het 0 minuten geleden gemaakt, om 08:01 UTC
Verwachting geldig van 23 om 09 UTC tot 24 om 09 UTC
Wind 7 kt uit het oosten
Zicht 10 km of meer
geen wolken onder 1500 m en geen cumulonimbus
Tijdelijke
van 23 om 23 UTC tot 24 om 05 UTC
Zicht: 3000 m
Verspreide wolken op 500 ft
nevel

TAF: EVRA 230801Z 2309/2409 10007KT CAVOK TEMPO 2323/2405 3000 BR SCT005

Waarnemingen en weersverwachtingen van meer dan 4000 vliegvelden (METAR en TAF).

De beschikbare stations zijn de gele en rode punten op de kaart.

Ga met uw muis naar het station om de naam te zien.

Klik dan om waarnemingen en weersverwachtingen te zien.

kaart wijzigen: klik op de groene knoppen met een zwart kruis om in te zoomen, op de groene knop met een streepje om uit te zoomen of op de groene pijlen voor aangrenzende kaarten.


METAR-TAF: